Time;durP1;ratioP1;P1;durP2;ratioP2;P2;SDS_P1;SDS_P2;PMS_P1;PMS_P2;Temp;Humidity;BMP_temperature;BMP_pressure;BME280_temperature;BME280_humidity;BME280_pressure;Samples;Min_cycle;Max_cycle;Signal;HPM_P1;HPM_P2
2022/12/08 00:00:11;;;;;;;2.55;1.70;;;14.30;65.70;;;;;;5123629;28;20027;-70
2022/12/08 00:02:37;;;;;;;2.05;1.77;;;14.30;65.50;;;;;;5123626;28;20060;-70
2022/12/08 00:10:32;;;;;;;1.75;1.60;;;14.30;65.40;;;;;;5123305;28;20086;-70
2022/12/08 00:12:58;;;;;;;2.28;1.33;;;14.30;65.40;;;;;;5123439;28;20024;-70
2022/12/08 00:15:23;;;;;;;2.10;1.50;;;14.30;65.40;;;;;;5123401;28;20016;-70
2022/12/08 00:17:49;;;;;;;2.15;1.70;;;14.30;65.50;;;;;;5105021;28;20023;-69
2022/12/08 00:20:15;;;;;;;1.60;1.50;;;14.30;65.60;;;;;;5123225;28;20027;-69
2022/12/08 00:22:40;;;;;;;2.47;1.73;;;14.30;65.70;;;;;;5123252;28;20339;-70
2022/12/08 00:25:06;;;;;;;1.90;1.70;;;14.20;66.00;;;;;;5123224;28;20024;-70
2022/12/08 00:27:32;;;;;;;2.08;1.50;;;14.20;66.10;;;;;;5123088;28;20034;-70
2022/12/08 00:29:58;;;;;;;2.85;1.80;;;14.20;66.20;;;;;;5104819;28;20252;-70
2022/12/08 00:32:24;;;;;;;2.03;1.52;;;14.20;66.20;;;;;;5123079;28;20315;-70
2022/12/08 00:34:49;;;;;;;2.03;1.70;;;14.20;66.20;;;;;;5123062;28;20307;-70
2022/12/08 00:37:15;;;;;;;2.15;1.60;;;14.20;66.20;;;;;;5122100;28;20027;-70
2022/12/08 00:39:41;;;;;;;2.03;1.50;;;14.20;66.10;;;;;;5122875;28;20023;-70
2022/12/08 00:42:13;;;;;;;2.33;1.70;;;14.20;66.10;;;;;;5122915;28;20024;-69
2022/12/08 00:44:40;;;;;;;2.05;1.75;;;14.20;66.20;;;;;;5122907;28;20321;-70
2022/12/08 00:47:06;;;;;;;2.25;1.73;;;14.20;66.10;;;;;;5122797;28;20042;-70
2022/12/08 00:49:31;;;;;;;3.70;2.25;;;14.20;66.10;;;;;;5122773;28;20374;-70
2022/12/08 00:51:57;;;;;;;2.35;1.60;;;14.20;66.00;;;;;;5122747;28;20253;-69
2022/12/08 00:54:23;;;;;;;2.28;1.90;;;14.20;66.00;;;;;;5122764;28;20027;-70
2022/12/08 00:56:49;;;;;;;2.25;1.67;;;14.20;66.00;;;;;;5122711;28;20315;-69
2022/12/08 00:59:15;;;;;;;2.30;2.05;;;14.20;65.80;;;;;;5122507;28;20011;-69
2022/12/08 01:01:43;;;;;;;1.38;1.17;;;14.20;65.80;;;;;;5104347;28;20054;-70
2022/12/08 01:04:14;;;;;;;2.53;1.60;;;14.20;65.70;;;;;;5122241;28;20016;-70
2022/12/08 01:06:40;;;;;;;2.15;1.60;;;14.20;65.60;;;;;;5122487;28;20011;-70
2022/12/08 01:09:07;;;;;;;1.88;1.67;;;14.30;65.70;;;;;;5122521;28;20261;-70
2022/12/08 01:11:34;;;;;;;1.67;1.58;;;14.30;65.70;;;;;;5122492;28;20208;-70
2022/12/08 01:14:02;;;;;;;1.65;1.30;;;14.30;65.60;;;;;;5122465;28;20007;-70
2022/12/08 01:16:32;;;;;;;1.55;1.42;;;14.30;65.50;;;;;;5122417;28;20338;-69
2022/12/08 01:18:59;;;;;;;2.10;1.60;;;14.30;65.50;;;;;;5122297;28;20073;-70
2022/12/08 01:21:25;;;;;;;1.95;1.85;;;14.30;65.40;;;;;;5122382;28;20023;-69
2022/12/08 01:23:51;;;;;;;1.48;1.38;;;14.30;65.50;;;;;;5122397;28;20208;-69
2022/12/08 01:26:18;;;;;;;2.33;1.60;;;14.30;65.60;;;;;;5122312;28;20071;-69
2022/12/08 01:28:45;;;;;;;2.20;1.70;;;14.20;65.60;;;;;;5104009;28;20027;-68
2022/12/08 01:31:16;;;;;;;2.20;1.52;;;14.20;65.80;;;;;;5122335;28;20023;-69
2022/12/08 01:33:43;;;;;;;2.05;1.63;;;14.20;66.00;;;;;;5122347;28;20073;-71
2022/12/08 01:36:20;;;;;;;1.92;1.63;;;14.10;66.20;;;;;;5122231;28;20023;-69
2022/12/08 01:38:46;;;;;;;1.65;1.40;;;14.10;66.30;;;;;;5122324;28;20020;-69
2022/12/08 01:41:16;;;;;;;2.17;1.73;;;14.10;66.30;;;;;;5122098;28;20022;-69
2022/12/08 01:44:07;;;;;;;4.25;1.90;;;14.10;66.30;;;;;;5122264;28;20213;-69
2022/12/08 01:46:34;;;;;;;2.03;1.48;;;14.10;66.10;;;;;;5103852;28;20189;-69
2022/12/08 01:49:03;;;;;;;2.45;1.67;;;14.20;66.20;;;;;;5123690;28;20018;-69
2022/12/08 01:51:32;;;;;;;1.98;1.60;;;14.20;66.10;;;;;;5107909;28;20220;-70
2022/12/08 01:53:58;;;;;;;2.50;1.98;;;14.20;66.20;;;;;;5126182;28;20015;-71
2022/12/08 01:56:53;;;;;;;1.50;1.40;;;14.10;66.30;;;;;;5126140;28;20115;-69
2022/12/08 01:59:19;;;;;;;2.30;1.73;;;14.20;65.90;;;;;;5096273;28;20044;-69
2022/12/08 02:01:44;;;;;;;1.95;1.73;;;14.20;66.00;;;;;;5125975;28;20330;-71
2022/12/08 02:04:11;;;;;;;2.50;1.70;;;14.20;66.00;;;;;;5125974;28;20088;-69
2022/12/08 02:06:40;;;;;;;1.92;1.73;;;14.20;65.90;;;;;;5125866;28;20061;-69
2022/12/08 02:09:07;;;;;;;2.13;1.92;;;14.20;65.90;;;;;;5125780;28;20066;-70
2022/12/08 02:11:33;;;;;;;2.28;1.52;;;14.20;65.80;;;;;;5125812;28;20016;-70
2022/12/08 02:14:02;;;;;;;2.17;1.77;;;14.20;65.70;;;;;;5125792;28;20043;-70
2022/12/08 02:16:59;;;;;;;1.55;1.35;;;14.20;65.60;;;;;;5125844;28;20020;-70
2022/12/08 02:20:03;;;;;;;1.67;1.45;;;14.20;65.60;;;;;;5125649;28;20068;-69
2022/12/08 02:23:00;;;;;;;2.15;1.60;;;14.20;65.40;;;;;;5042854;28;20021;-69
2022/12/08 02:25:30;;;;;;;2.40;1.90;;;14.20;65.40;;;;;;5038637;28;20033;-69
2022/12/08 02:28:10;;;;;;;2.05;1.25;;;14.20;65.50;;;;;;5101465;28;20352;-70
2022/12/08 02:30:44;;;;;;;1.70;1.58;;;14.20;65.50;;;;;;5125391;28;20073;-70
2022/12/08 02:33:34;;;;;;;1.85;1.38;;;14.20;65.50;;;;;;5125404;28;20027;-70
2022/12/08 02:36:16;;;;;;;2.42;1.90;;;14.20;65.50;;;;;;5125397;28;20019;-70
2022/12/08 02:38:45;;;;;;;2.00;1.67;;;14.20;65.60;;;;;;5125327;28;20084;-69
2022/12/08 02:41:16;;;;;;;1.83;1.67;;;14.20;65.90;;;;;;5125175;28;20027;-70
2022/12/08 02:44:23;;;;;;;1.77;1.67;;;14.20;65.90;;;;;;5125177;28;20015;-70
2022/12/08 02:46:58;;;;;;;1.83;1.58;;;14.10;66.20;;;;;;5125159;28;20015;-70
2022/12/08 02:49:30;;;;;;;2.25;2.03;;;14.00;66.30;;;;;;5125165;28;20026;-70
2022/12/08 02:52:24;;;;;;;1.98;1.40;;;14.00;66.40;;;;;;5125072;28;20076;-69
2022/12/08 02:54:59;;;;;;;2.33;1.77;;;14.10;66.30;;;;;;5124506;28;20044;-69
2022/12/08 02:57:41;;;;;;;1.40;1.30;;;14.00;66.30;;;;;;5125015;28;20028;-69
2022/12/08 03:00:12;;;;;;;2.17;1.70;;;14.10;66.20;;;;;;5123840;28;20211;-70
2022/12/08 03:02:53;;;;;;;2.38;1.70;;;14.10;67.00;;;;;;5124880;28;20031;-69
2022/12/08 03:05:48;;;;;;;1.63;1.20;;;14.10;66.40;;;;;;5124866;28;20039;-70
2022/12/08 03:08:34;;;;;;;2.78;1.88;;;14.10;66.10;;;;;;5124768;28;20016;-70
2022/12/08 03:11:13;;;;;;;2.00;1.67;;;14.10;66.80;;;;;;5124573;28;20132;-69
2022/12/08 03:13:43;;;;;;;1.63;1.50;;;14.10;66.10;;;;;;5124722;28;20024;-70
2022/12/08 03:16:13;;;;;;;1.77;1.65;;;14.20;66.00;;;;;;5124651;28;20266;-69
2022/12/08 03:18:46;;;;;;;1.42;1.13;;;14.10;65.90;;;;;;5124505;28;20046;-70
2022/12/08 03:21:15;;;;;;;1.77;1.55;;;14.10;65.90;;;;;;5124434;28;20114;-70
2022/12/08 03:23:43;;;;;;;1.85;1.75;;;14.20;65.90;;;;;;5124435;28;20249;-69
2022/12/08 03:26:20;;;;;;;1.85;1.52;;;14.20;65.80;;;;;;5124322;28;20016;-69
2022/12/08 03:28:46;;;;;;;1.67;1.58;;;14.20;65.70;;;;;;5124389;28;20023;-69
2022/12/08 03:31:14;;;;;;;2.15;1.77;;;14.20;65.70;;;;;;5124323;28;20027;-69
2022/12/08 03:33:44;;;;;;;2.45;1.30;;;14.20;65.60;;;;;;5124298;28;20065;-69
2022/12/08 03:36:11;;;;;;;1.65;1.30;;;14.20;65.50;;;;;;5124222;28;20352;-69
2022/12/08 03:38:39;;;;;;;1.77;1.55;;;14.20;65.60;;;;;;5124240;28;20019;-69
2022/12/08 03:41:17;;;;;;;2.23;1.80;;;14.20;65.60;;;;;;5124147;28;20249;-69
2022/12/08 03:43:48;;;;;;;1.75;1.35;;;14.20;65.60;;;;;;5124137;28;20240;-69
2022/12/08 03:46:15;;;;;;;1.90;1.50;;;14.20;65.80;;;;;;5124033;28;20019;-69
2022/12/08 03:48:41;;;;;;;1.75;1.50;;;14.20;65.70;;;;;;5124009;28;20032;-69
2022/12/08 03:51:07;;;;;;;2.38;1.88;;;14.10;65.80;;;;;;5123944;28;20016;-70
2022/12/08 03:53:33;;;;;;;1.95;1.45;;;14.10;66.20;;;;;;5123963;28;20024;-69
2022/12/08 03:55:59;;;;;;;2.28;1.70;;;14.00;66.30;;;;;;5123810;28;20090;-70
2022/12/08 03:58:25;;;;;;;1.38;1.27;;;14.00;66.40;;;;;;5123749;28;20326;-70
2022/12/08 04:00:51;;;;;;;2.30;1.50;;;14.00;66.60;;;;;;5123590;28;20212;-70
2022/12/08 04:03:16;;;;;;;1.50;1.40;;;14.00;66.70;;;;;;5123668;28;20043;-70
2022/12/08 04:05:42;;;;;;;1.75;1.52;;;14.00;66.60;;;;;;5123539;28;20024;-70
2022/12/08 04:08:08;;;;;;;2.00;1.77;;;14.00;66.60;;;;;;5123482;28;20020;-69
2022/12/08 04:10:34;;;;;;;2.47;1.73;;;14.00;66.60;;;;;;5123355;28;20047;-69
2022/12/08 04:12:59;;;;;;;2.22;1.67;;;14.00;66.40;;;;;;5123322;28;20023;-69
2022/12/08 04:15:25;;;;;;;1.90;1.60;;;14.10;66.30;;;;;;5123378;28;20023;-70
2022/12/08 04:17:51;;;;;;;2.45;1.60;;;14.10;66.20;;;;;;5123440;28;20035;-70
2022/12/08 04:20:17;;;;;;;1.75;1.50;;;14.10;66.20;;;;;;5123205;28;20027;-70
2022/12/08 04:22:42;;;;;;;1.70;1.60;;;14.10;66.20;;;;;;5123212;28;20038;-69
2022/12/08 04:25:08;;;;;;;1.90;1.50;;;14.10;66.10;;;;;;5105039;28;20087;-70
2022/12/08 04:27:34;;;;;;;1.40;1.30;;;14.10;66.00;;;;;;5105008;28;20016;-69
2022/12/08 04:30:00;;;;;;;1.73;1.50;;;14.10;66.10;;;;;;5123189;28;20068;-69
2022/12/08 04:32:25;;;;;;;2.05;1.85;;;14.10;66.70;;;;;;5123097;28;20121;-69
2022/12/08 04:34:51;;;;;;;2.03;1.65;;;14.10;66.00;;;;;;5104914;28;20347;-69
2022/12/08 04:37:17;;;;;;;1.40;1.30;;;14.10;65.90;;;;;;5122974;28;20031;-69
2022/12/08 04:39:42;;;;;;;1.73;1.50;;;14.10;65.90;;;;;;5122956;28;20305;-70
2022/12/08 04:42:08;;;;;;;1.83;1.60;;;14.10;65.80;;;;;;5122966;28;20314;-69
2022/12/08 04:44:34;;;;;;;1.65;1.33;;;14.10;65.80;;;;;;5122873;28;20075;-70
2022/12/08 04:47:00;;;;;;;1.70;1.60;;;14.10;65.80;;;;;;5122763;28;20016;-69
2022/12/08 04:49:25;;;;;;;1.33;1.15;;;14.10;65.80;;;;;;5122688;28;20023;-70
2022/12/08 04:51:51;;;;;;;1.60;1.50;;;14.10;65.70;;;;;;5122715;28;20028;-70
2022/12/08 04:54:17;;;;;;;2.33;1.55;;;14.20;65.90;;;;;;5122698;28;20051;-69
2022/12/08 04:56:43;;;;;;;1.92;1.65;;;14.10;65.90;;;;;;5122644;28;20031;-69
2022/12/08 04:59:08;;;;;;;1.83;1.60;;;14.10;66.00;;;;;;5122486;28;20023;-69
2022/12/08 05:01:34;;;;;;;1.70;1.48;;;14.10;66.20;;;;;;5122542;28;20220;-69
2022/12/08 05:04:00;;;;;;;2.35;1.77;;;14.00;66.40;;;;;;5122592;28;20323;-69
2022/12/08 05:06:26;;;;;;;1.70;1.35;;;14.00;66.50;;;;;;5122494;28;20020;-69
2022/12/08 05:08:51;;;;;;;1.88;1.45;;;14.00;66.60;;;;;;5122395;28;20012;-69
2022/12/08 05:11:18;;;;;;;1.52;1.40;;;14.00;66.60;;;;;;5122495;28;20051;-69
2022/12/08 05:13:44;;;;;;;1.83;1.42;;;14.00;66.70;;;;;;5122397;28;20286;-69
2022/12/08 05:16:12;;;;;;;2.00;1.63;;;14.00;66.60;;;;;;5122324;28;20023;-69
2022/12/08 05:18:39;;;;;;;2.15;1.70;;;14.00;66.50;;;;;;5122396;28;20067;-70
2022/12/08 05:21:05;;;;;;;1.75;1.50;;;14.00;66.50;;;;;;5122267;28;20262;-70
2022/12/08 05:23:32;;;;;;;1.73;1.50;;;14.00;66.60;;;;;;5121800;28;20016;-70
2022/12/08 05:25:58;;;;;;;2.70;1.55;;;14.00;66.30;;;;;;5122286;28;20068;-70
2022/12/08 05:28:24;;;;;;;2.17;1.80;;;14.10;66.30;;;;;;5122215;28;20020;-70
2022/12/08 05:30:50;;;;;;;1.60;1.40;;;14.10;66.30;;;;;;5122225;28;20083;-70
2022/12/08 05:33:16;;;;;;;2.00;1.60;;;14.00;66.20;;;;;;5122158;28;20024;-70
2022/12/08 05:35:41;;;;;;;1.83;1.70;;;14.10;66.10;;;;;;5122136;28;20266;-70
2022/12/08 05:38:09;;;;;;;1.45;1.35;;;14.10;66.10;;;;;;5122169;28;20024;-70
2022/12/08 05:40:37;;;;;;;1.88;1.38;;;14.10;66.00;;;;;;5121976;28;20027;-70
2022/12/08 05:43:04;;;;;;;1.88;1.60;;;14.10;66.00;;;;;;5122110;28;20065;-70
2022/12/08 05:45:29;;;;;;;1.92;1.60;;;14.10;65.90;;;;;;5122074;28;20042;-70
2022/12/08 05:47:55;;;;;;;2.47;1.88;;;14.10;65.90;;;;;;5122009;28;20015;-70
2022/12/08 05:50:21;;;;;;;1.67;1.35;;;14.10;65.90;;;;;;5122043;28;20026;-69
2022/12/08 05:52:47;;;;;;;1.88;1.63;;;14.10;65.80;;;;;;5122034;28;20042;-70
2022/12/08 05:55:12;;;;;;;1.95;1.70;;;14.10;65.70;;;;;;5121984;28;20342;-69
2022/12/08 05:57:38;;;;;;;1.50;1.40;;;14.10;65.80;;;;;;5103852;28;20104;-69
2022/12/08 06:00:05;;;;;;;1.88;1.60;;;14.10;65.80;;;;;;5121896;28;20089;-69
2022/12/08 06:02:31;;;;;;;1.65;1.40;;;14.10;65.90;;;;;;5121867;28;20019;-69
2022/12/08 06:04:56;;;;;;;1.98;1.50;;;14.10;66.00;;;;;;5121946;28;20019;-69
2022/12/08 06:07:22;;;;;;;1.45;1.33;;;14.10;66.00;;;;;;5121938;28;20333;-70
2022/12/08 06:09:48;;;;;;;2.47;1.60;;;14.00;66.10;;;;;;5121729;28;20347;-70
2022/12/08 06:12:14;;;;;;;1.60;1.45;;;14.00;66.20;;;;;;5121844;28;20026;-69
2022/12/08 06:14:40;;;;;;;2.05;1.63;;;14.00;66.50;;;;;;5121830;28;20096;-70
2022/12/08 06:17:06;;;;;;;1.90;1.70;;;14.00;66.60;;;;;;5121859;28;20019;-69
2022/12/08 06:19:32;;;;;;;1.33;1.23;;;13.90;66.70;;;;;;5121763;28;20075;-69
2022/12/08 06:21:58;;;;;;;1.27;1.10;;;13.90;66.80;;;;;;5121769;28;20018;-69
2022/12/08 06:24:23;;;;;;;2.42;1.85;;;13.90;66.80;;;;;;5121827;28;20334;-70
2022/12/08 06:26:49;;;;;;;1.30;1.20;;;14.00;66.70;;;;;;5121745;28;20355;-70
2022/12/08 06:29:15;;;;;;;1.33;1.23;;;14.00;66.70;;;;;;5121785;28;20072;-71
2022/12/08 06:31:41;;;;;;;1.30;1.13;;;14.00;66.70;;;;;;5121711;28;20022;-69
2022/12/08 06:34:06;;;;;;;1.35;1.25;;;14.00;66.50;;;;;;5121766;28;20206;-70
2022/12/08 06:36:33;;;;;;;1.85;1.75;;;14.00;66.40;;;;;;5123970;28;20038;-71
2022/12/08 06:39:00;;;;;;;1.60;1.27;;;14.00;66.30;;;;;;5125382;28;20016;-69
2022/12/08 06:41:26;;;;;;;2.70;1.90;;;14.00;66.30;;;;;;5125209;28;20103;-70
2022/12/08 06:43:56;;;;;;;1.65;1.50;;;14.00;66.20;;;;;;5125326;28;20020;-69
2022/12/08 06:46:22;;;;;;;1.23;1.10;;;14.10;66.30;;;;;;5125324;28;20014;-69
2022/12/08 06:48:49;;;;;;;1.85;1.60;;;14.00;66.20;;;;;;5125275;28;20307;-69
2022/12/08 06:51:18;;;;;;;1.83;1.63;;;14.10;66.20;;;;;;5125113;28;20086;-69
2022/12/08 06:53:45;;;;;;;1.90;1.60;;;14.10;66.20;;;;;;5125071;28;20015;-69
2022/12/08 06:56:12;;;;;;;2.42;1.50;;;14.00;66.00;;;;;;5125044;28;20024;-69
2022/12/08 06:58:38;;;;;;;1.73;1.55;;;14.10;66.00;;;;;;5124959;28;20121;-70
2022/12/08 07:01:05;;;;;;;1.50;1.33;;;14.10;65.90;;;;;;5124851;28;20020;-69
2022/12/08 07:03:31;;;;;;;2.05;1.55;;;14.10;65.90;;;;;;5124868;28;20023;-69
2022/12/08 07:05:57;;;;;;;2.60;1.52;;;14.10;65.80;;;;;;5124856;28;20023;-70
2022/12/08 07:08:23;;;;;;;1.42;1.20;;;14.10;65.80;;;;;;5124809;28;20211;-69
2022/12/08 07:10:49;;;;;;;2.13;1.80;;;14.10;65.80;;;;;;5124555;28;20046;-69
2022/12/08 07:13:14;;;;;;;2.63;1.98;;;14.10;65.80;;;;;;5124654;28;20319;-69
2022/12/08 07:15:40;;;;;;;1.67;1.40;;;14.10;65.90;;;;;;5124573;28;20059;-70
2022/12/08 07:18:06;;;;;;;1.85;1.63;;;14.00;66.00;;;;;;5124600;28;20059;-70
2022/12/08 07:20:32;;;;;;;2.08;1.40;;;14.00;66.00;;;;;;5124459;28;20023;-69
2022/12/08 07:22:57;;;;;;;2.35;1.70;;;14.00;66.10;;;;;;5106307;28;20075;-67
2022/12/08 07:25:23;;;;;;;1.95;1.38;;;14.00;66.40;;;;;;5124443;28;20022;-68
2022/12/08 07:27:50;;;;;;;1.20;1.10;;;14.00;66.50;;;;;;5124415;28;20019;-69
2022/12/08 07:30:16;;;;;;;1.38;1.23;;;14.00;66.60;;;;;;5124337;28;20023;-69
2022/12/08 07:32:42;;;;;;;1.88;1.40;;;13.90;66.60;;;;;;5124334;28;20028;-69
2022/12/08 07:35:08;;;;;;;1.52;1.42;;;13.90;66.70;;;;;;5124331;28;20084;-69
2022/12/08 07:37:36;;;;;;;1.52;1.42;;;13.90;66.70;;;;;;5124153;28;20371;-69
2022/12/08 07:40:03;;;;;;;2.28;1.50;;;13.90;66.70;;;;;;5124087;28;20031;-69
2022/12/08 07:42:29;;;;;;;1.83;1.40;;;14.00;66.70;;;;;;5124050;28;20012;-69
2022/12/08 07:44:55;;;;;;;1.85;1.50;;;14.00;66.40;;;;;;5124005;28;20022;-69
2022/12/08 07:47:20;;;;;;;1.40;1.25;;;14.00;66.40;;;;;;5123519;28;20293;-69
2022/12/08 07:49:46;;;;;;;2.60;1.65;;;14.00;66.30;;;;;;5123847;28;20034;-69
2022/12/08 07:52:12;;;;;;;2.13;1.58;;;14.00;66.30;;;;;;5123872;28;20028;-70
2022/12/08 07:54:37;;;;;;;2.20;1.92;;;14.10;66.30;;;;;;5123820;28;20034;-69
2022/12/08 07:57:04;;;;;;;1.52;1.40;;;14.00;66.20;;;;;;5123854;28;20081;-69
2022/12/08 07:59:31;;;;;;;1.60;1.30;;;14.00;66.20;;;;;;5123638;28;20022;-70
2022/12/08 08:01:57;;;;;;;2.10;1.40;;;14.10;66.30;;;;;;5123726;28;20024;-69
2022/12/08 08:04:23;;;;;;;2.05;1.58;;;14.10;66.30;;;;;;5123631;28;20327;-68
2022/12/08 08:06:48;;;;;;;1.60;1.50;;;14.10;66.20;;;;;;5123678;28;20019;-69
2022/12/08 08:09:14;;;;;;;2.00;1.80;;;14.10;66.20;;;;;;5122993;28;20051;-69
2022/12/08 08:11:40;;;;;;;1.70;1.48;;;14.10;66.20;;;;;;5123562;28;20372;-70
2022/12/08 08:14:06;;;;;;;2.05;1.58;;;14.10;66.10;;;;;;5123520;28;20279;-69
2022/12/08 08:16:32;;;;;;;1.92;1.42;;;14.10;66.10;;;;;;5123515;28;20243;-69
2022/12/08 08:18:57;;;;;;;2.47;1.80;;;14.10;66.00;;;;;;5123373;28;20023;-70
2022/12/08 08:21:23;;;;;;;1.70;1.42;;;14.10;66.00;;;;;;5123228;28;20378;-70
2022/12/08 08:23:49;;;;;;;1.33;1.23;;;14.10;66.00;;;;;;5123313;28;20035;-69
2022/12/08 08:26:15;;;;;;;2.00;1.70;;;14.10;65.90;;;;;;5123254;28;20020;-69
2022/12/08 08:28:42;;;;;;;1.73;1.23;;;14.10;65.90;;;;;;5123173;28;20042;-70
2022/12/08 08:31:08;;;;;;;1.88;1.60;;;14.10;65.90;;;;;;5123125;28;20114;-70
2022/12/08 08:33:34;;;;;;;1.58;1.48;;;14.10;65.90;;;;;;5123099;28;20019;-69
2022/12/08 08:36:00;;;;;;;1.60;1.38;;;14.10;65.90;;;;;;5123098;28;20244;-70
2022/12/08 08:38:25;;;;;;;1.92;1.38;;;14.10;66.10;;;;;;5123019;28;20095;-70
2022/12/08 08:40:51;;;;;;;1.65;1.27;;;14.00;66.30;;;;;;5122903;28;20023;-69
2022/12/08 08:43:29;;;;;;;1.55;1.40;;;14.00;66.40;;;;;;5122917;28;20015;-70
2022/12/08 08:45:58;;;;;;;1.48;1.35;;;14.00;66.40;;;;;;5123012;28;20015;-70
2022/12/08 08:48:26;;;;;;;1.75;1.40;;;14.00;66.50;;;;;;5122936;28;20072;-69
2022/12/08 08:50:52;;;;;;;2.20;1.50;;;14.00;66.50;;;;;;5122813;28;20045;-70
2022/12/08 08:53:18;;;;;;;1.63;1.20;;;14.00;66.60;;;;;;5104694;28;20185;-70
2022/12/08 08:55:44;;;;;;;1.58;1.35;;;14.00;66.60;;;;;;5122761;28;20326;-69
2022/12/08 08:58:10;;;;;;;2.08;1.42;;;14.00;66.60;;;;;;5121899;28;20030;-70
2022/12/08 09:00:36;;;;;;;2.10;1.63;;;14.00;66.50;;;;;;5122586;28;20359;-69
2022/12/08 09:03:02;;;;;;;1.63;1.52;;;14.00;66.50;;;;;;5122520;28;20015;-70
2022/12/08 09:05:28;;;;;;;1.20;1.10;;;14.00;66.50;;;;;;5122592;28;20540;-69
2022/12/08 09:07:53;;;;;;;2.22;1.42;;;14.00;66.40;;;;;;5122510;28;20027;-69
2022/12/08 09:10:19;;;;;;;1.67;1.48;;;14.00;66.30;;;;;;5122241;28;20347;-69
2022/12/08 09:12:45;;;;;;;1.30;1.20;;;14.10;66.30;;;;;;5122503;28;20196;-70
2022/12/08 09:15:11;;;;;;;1.65;1.45;;;14.10;66.30;;;;;;5122462;28;20015;-70
2022/12/08 09:17:37;;;;;;;1.90;1.45;;;14.10;66.30;;;;;;5122369;28;20023;-69
2022/12/08 09:20:04;;;;;;;1.55;1.45;;;14.10;66.30;;;;;;5122294;28;20339;-70
2022/12/08 09:22:30;;;;;;;2.72;1.60;;;14.00;66.20;;;;;;5122319;28;20027;-69
2022/12/08 09:24:56;;;;;;;1.73;1.45;;;14.10;66.20;;;;;;5122312;28;20011;-69
2022/12/08 09:27:21;;;;;;;1.60;1.50;;;14.10;66.20;;;;;;5122337;28;20030;-69
2022/12/08 09:29:47;;;;;;;1.75;1.60;;;14.10;66.20;;;;;;5122279;28;20078;-70
2022/12/08 09:32:13;;;;;;;2.72;1.83;;;14.10;66.10;;;;;;5122341;28;20027;-69
2022/12/08 09:34:39;;;;;;;1.70;1.45;;;14.10;66.20;;;;;;5122206;28;20353;-69
2022/12/08 09:37:04;;;;;;;1.60;1.48;;;14.10;66.10;;;;;;5122288;28;20031;-70
2022/12/08 09:39:30;;;;;;;1.40;1.30;;;14.10;66.00;;;;;;5122185;28;20019;-70
2022/12/08 09:42:02;;;;;;;1.98;1.73;;;14.10;66.10;;;;;;5122237;28;20356;-70
2022/12/08 09:44:58;;;;;;;1.48;1.30;;;14.10;66.00;;;;;;5122182;28;20084;-69
2022/12/08 09:47:30;;;;;;;1.83;1.33;;;14.10;66.00;;;;;;5122147;28;20020;-69
2022/12/08 09:50:24;;;;;;;1.98;1.60;;;14.10;66.20;;;;;;5122074;28;20020;-69
2022/12/08 09:53:11;;;;;;;2.35;1.70;;;14.00;66.30;;;;;;5122155;28;20384;-69
2022/12/08 09:55:45;;;;;;;1.40;1.30;;;14.00;66.50;;;;;;5122023;28;20030;-70
2022/12/08 09:58:20;;;;;;;2.25;1.65;;;14.00;66.60;;;;;;5122106;28;20027;-71
2022/12/08 10:00:46;;;;;;;2.63;1.40;;;14.00;66.60;;;;;;5121939;28;20339;-69
2022/12/08 10:03:12;;;;;;;1.65;1.48;;;14.00;66.70;;;;;;5121948;28;20022;-70
2022/12/08 10:05:51;;;;;;;1.42;1.30;;;14.00;66.70;;;;;;5121925;28;20038;-70
2022/12/08 10:08:29;;;;;;;2.45;1.30;;;14.00;66.70;;;;;;5121977;28;20022;-70
2022/12/08 10:11:02;;;;;;;1.48;1.38;;;14.00;66.60;;;;;;5124836;28;20215;-69
2022/12/08 10:13:40;;;;;;;1.38;1.27;;;14.00;66.70;;;;;;5125838;28;20399;-70
2022/12/08 10:16:25;;;;;;;1.48;1.20;;;14.00;66.60;;;;;;5125807;28;20028;-69
2022/12/08 10:18:59;;;;;;;2.70;1.98;;;14.00;66.60;;;;;;5125763;28;20031;-69
2022/12/08 10:21:27;;;;;;;1.73;1.42;;;14.00;66.50;;;;;;5125644;28;20024;-69
2022/12/08 10:24:08;;;;;;;1.50;1.40;;;14.10;66.50;;;;;;5125665;28;20082;-68
2022/12/08 10:26:33;;;;;;;1.45;1.35;;;14.10;66.50;;;;;;5125621;28;20122;-69
2022/12/08 10:29:01;;;;;;;1.98;1.38;;;14.10;66.40;;;;;;5125598;28;20258;-69
2022/12/08 10:31:29;;;;;;;1.77;1.40;;;14.10;66.30;;;;;;5125457;28;20188;-69
2022/12/08 10:34:22;;;;;;;1.77;1.60;;;14.10;66.30;;;;;;5125434;28;20031;-69
2022/12/08 10:36:56;;;;;;;3.05;1.65;;;14.10;66.90;;;;;;5125410;28;20103;-69
2022/12/08 10:39:44;;;;;;;1.98;1.77;;;14.10;66.30;;;;;;5125203;28;20220;-69
2022/12/08 10:42:13;;;;;;;1.73;1.63;;;14.10;66.20;;;;;;5125325;28;20023;-69
2022/12/08 10:45:09;;;;;;;1.70;1.40;;;14.10;66.30;;;;;;5125177;28;20012;-70
2022/12/08 10:47:40;;;;;;;2.17;1.63;;;14.10;66.10;;;;;;5125255;28;20042;-70
2022/12/08 10:50:11;;;;;;;1.55;1.35;;;14.10;66.20;;;;;;5125082;28;20028;-69
2022/12/08 10:52:39;;;;;;;1.83;1.50;;;14.10;66.20;;;;;;5125144;28;20334;-69
2022/12/08 10:55:25;;;;;;;1.60;1.40;;;14.10;66.20;;;;;;5124942;28;20331;-70
2022/12/08 10:57:51;;;;;;;1.83;1.60;;;14.10;66.00;;;;;;5124924;28;20231;-69
2022/12/08 11:00:22;;;;;;;2.42;1.58;;;14.10;66.10;;;;;;5124867;28;20096;-70
2022/12/08 11:02:54;;;;;;;1.52;1.40;;;14.10;66.20;;;;;;5124772;28;20237;-69
2022/12/08 11:05:22;;;;;;;1.90;1.60;;;14.10;66.10;;;;;;5124917;28;20015;-70
2022/12/08 11:07:52;;;;;;;2.30;1.95;;;14.10;66.30;;;;;;5124826;28;20322;-69
2022/12/08 11:10:25;;;;;;;1.38;1.27;;;14.10;66.40;;;;;;5124266;28;20306;-69
2022/12/08 11:12:51;;;;;;;1.85;1.40;;;14.10;66.50;;;;;;5124736;28;20227;-70
2022/12/08 11:15:18;;;;;;;1.75;1.60;;;14.10;66.50;;;;;;5124650;28;20034;-69
2022/12/08 11:17:48;;;;;;;1.30;1.20;;;14.10;66.50;;;;;;5124567;28;20027;-69
2022/12/08 11:20:14;;;;;;;1.58;1.48;;;14.10;66.40;;;;;;5124632;28;20047;-69
2022/12/08 11:22:42;;;;;;;1.58;1.45;;;14.10;66.40;;;;;;5123669;28;20038;-69
2022/12/08 11:25:16;;;;;;;1.65;1.50;;;14.10;66.30;;;;;;5124501;28;20253;-70
2022/12/08 11:27:48;;;;;;;1.80;1.63;;;14.10;66.30;;;;;;5124342;28;20047;-70
2022/12/08 11:30:15;;;;;;;1.75;1.40;;;14.20;66.30;;;;;;5124316;28;20016;-70
2022/12/08 11:32:43;;;;;;;1.67;1.35;;;14.20;66.30;;;;;;5124334;28;20030;-70
2022/12/08 11:35:25;;;;;;;1.48;1.30;;;14.20;66.30;;;;;;5124291;28;20022;-69
2022/12/08 11:37:54;;;;;;;1.60;1.40;;;14.10;66.20;;;;;;5124241;28;20076;-71
2022/12/08 11:40:23;;;;;;;;;;;14.10;66.30;;;;;;5124591;28;20230;-70
2022/12/08 11:43:01;;;;;;;;;;;14.20;66.30;;;;;;5124589;28;20183;-69
2022/12/08 11:45:30;;;;;;;1.70;1.57;;;14.10;66.40;;;;;;5124147;28;19923;-69
2022/12/08 11:48:18;;;;;;;1.77;1.20;;;14.10;66.40;;;;;;5124097;28;20070;-70
2022/12/08 11:50:56;;;;;;;1.65;1.30;;;14.10;66.20;;;;;;5124019;28;20039;-69
2022/12/08 11:53:31;;;;;;;1.50;1.40;;;14.20;66.30;;;;;;5124080;28;20020;-69
2022/12/08 11:56:03;;;;;;;1.83;1.40;;;14.10;66.30;;;;;;5123981;28;20327;-69
2022/12/08 11:58:41;;;;;;;1.33;1.23;;;14.10;66.30;;;;;;5123869;28;20069;-69
2022/12/08 12:01:20;;;;;;;2.17;1.73;;;14.10;66.30;;;;;;5123797;28;20027;-70
2022/12/08 12:04:25;;;;;;;1.50;1.40;;;14.10;66.30;;;;;;5123811;28;20023;-70
2022/12/08 12:06:56;;;;;;;2.05;1.85;;;14.10;66.30;;;;;;5123010;28;20027;-69
2022/12/08 12:09:28;;;;;;;1.27;1.10;;;14.10;66.40;;;;;;5122860;28;20057;-70
2022/12/08 12:12:44;;;;;;;1.52;1.40;;;14.10;66.40;;;;;;5123604;28;20028;-70
2022/12/08 12:15:36;;;;;;;1.98;1.77;;;14.10;66.30;;;;;;5040717;28;20021;-70
2022/12/08 12:18:23;;;;;;;1.35;1.25;;;14.10;66.20;;;;;;5040848;28;20024;-70
2022/12/08 12:21:18;;;;;;;1.90;1.63;;;14.10;66.20;;;;;;5106039;28;20073;-69
2022/12/08 12:23:46;;;;;;;1.58;1.48;;;14.10;66.40;;;;;;5113062;28;20095;-69
2022/12/08 12:26:49;;;;;;;1.73;1.27;;;14.00;66.50;;;;;;5123335;28;20018;-69
2022/12/08 12:29:22;;;;;;;1.63;1.30;;;14.10;66.40;;;;;;5104921;28;20020;-69
2022/12/08 12:31:54;;;;;;;1.73;1.55;;;14.00;66.60;;;;;;5123181;28;20031;-69
2022/12/08 12:34:26;;;;;;;1.80;1.52;;;14.00;66.60;;;;;;5123148;28;20311;-70
2022/12/08 12:37:02;;;;;;;1.83;1.52;;;14.00;66.60;;;;;;5123158;28;20019;-70
2022/12/08 12:39:30;;;;;;;2.47;1.70;;;14.00;66.60;;;;;;5122941;28;20099;-69
2022/12/08 12:42:02;;;;;;;1.85;1.65;;;14.10;66.60;;;;;;5123044;28;20067;-69
2022/12/08 12:44:28;;;;;;;2.13;1.58;;;14.10;66.60;;;;;;5123017;28;20060;-69
2022/12/08 12:46:59;;;;;;;1.45;1.35;;;14.00;66.60;;;;;;5122976;28;20083;-69
2022/12/08 12:49:39;;;;;;;1.95;1.60;;;14.10;66.60;;;;;;5122968;28;20023;-69
2022/12/08 12:52:14;;;;;;;1.08;1.00;;;14.10;66.60;;;;;;5122871;28;20047;-69
2022/12/08 12:54:49;;;;;;;2.45;1.77;;;14.10;66.50;;;;;;5122862;28;20057;-69
2022/12/08 12:57:22;;;;;;;1.50;1.40;;;14.10;66.50;;;;;;5122803;28;20026;-69
2022/12/08 12:59:54;;;;;;;1.58;1.48;;;14.10;66.40;;;;;;5122742;28;20019;-69
2022/12/08 13:02:28;;;;;;;2.28;1.50;;;14.10;66.40;;;;;;5122781;28;20074;-69
2022/12/08 13:05:22;;;;;;;1.70;1.60;;;14.10;66.30;;;;;;5104114;28;20019;-69
2022/12/08 13:07:53;;;;;;;1.50;1.40;;;14.10;66.30;;;;;;5122717;28;20023;-70